createdAt,value
2019-04-10T00:01:21.966Z,35.23
2019-04-10T00:03:55.322Z,15.83
2019-04-10T00:06:27.875Z,22.60
2019-04-10T00:09:00.887Z,23.25
2019-04-10T00:11:34.583Z,25.85
2019-04-10T00:15:16.114Z,14.28
2019-04-10T00:17:40.918Z,21.12
2019-04-10T00:20:12.859Z,17.70
2019-04-10T00:22:44.964Z,23.52
2019-04-10T00:25:16.893Z,17.87
2019-04-10T00:27:48.761Z,18.98
2019-04-10T00:30:22.496Z,25.55
2019-04-10T00:32:54.495Z,12.75
2019-04-10T00:35:27.671Z,16.85
2019-04-10T00:37:59.691Z,12.58
2019-04-10T00:40:33.209Z,20.08
2019-04-10T00:43:06.587Z,10.85
2019-04-10T00:45:51.443Z,16.65
2019-04-10T00:48:23.969Z,19.73
2019-04-10T00:50:56.881Z,17.10
2019-04-10T00:53:29.533Z,17.48
2019-04-10T00:56:01.933Z,20.08
2019-04-10T00:58:33.896Z,17.73
2019-04-10T01:01:05.701Z,14.30
2019-04-10T01:03:44.270Z,19.67
2019-04-10T01:06:16.875Z,22.42
2019-04-10T01:08:48.924Z,22.82
2019-04-10T01:11:21.124Z,13.38
2019-04-10T01:13:53.711Z,19.70
2019-04-10T01:16:25.555Z,16.05
2019-04-10T01:19:15.484Z,13.78
2019-04-10T01:22:00.984Z,20.35
2019-04-10T01:24:25.783Z,23.52
2019-04-10T01:26:57.796Z,14.80
2019-04-10T01:29:41.823Z,20.10
2019-04-10T01:35:44.681Z,17.92
2019-04-10T01:41:50.148Z,25.60
2019-04-10T01:44:24.734Z,15.13
2019-04-10T01:52:39.218Z,19.95
2019-04-10T01:55:20.079Z,18.42
2019-04-10T01:57:44.880Z,13.32
2019-04-10T02:00:19.545Z,24.63
2019-04-10T02:02:52.508Z,24.15
2019-04-10T02:05:24.857Z,23.65
2019-04-10T02:08:03.210Z,25.72
2019-04-10T02:10:30.069Z,19.48
2019-04-10T02:13:03.153Z,19.02
2019-04-10T02:15:34.945Z,22.10
2019-04-10T02:18:06.734Z,24.18
2019-04-10T02:20:38.913Z,20.12
2019-04-10T02:23:10.745Z,15.13
2019-04-10T02:25:43.188Z,22.35
2019-04-10T02:28:15.124Z,16.17
2019-04-10T02:30:47.890Z,21.65
2019-04-10T02:33:19.796Z,16.95
2019-04-10T02:35:52.626Z,17.65
2019-04-10T02:38:40.085Z,20.35
2019-04-10T02:40:59.202Z,15.38
2019-04-10T02:43:31.187Z,21.42
2019-04-10T02:46:04.067Z,15.55
2019-04-10T02:48:36.301Z,15.72
2019-04-10T02:51:09.593Z,22.82
2019-04-10T02:53:43.696Z,18.67
2019-04-10T02:56:18.056Z,20.15
2019-04-10T02:58:51.563Z,18.37
2019-04-10T03:01:25.175Z,19.75
2019-04-10T03:03:57.301Z,20.90
2019-04-10T03:06:29.376Z,20.00
2019-04-10T03:09:16.333Z,21.70
2019-04-10T03:11:35.830Z,18.95
2019-04-10T03:14:08.089Z,19.87
2019-04-10T03:16:41.704Z,20.55
2019-04-10T03:19:13.757Z,15.50
2019-04-10T03:21:47.063Z,18.92
2019-04-10T03:24:19.192Z,16.87
2019-04-10T03:26:52.067Z,20.72
2019-04-10T03:29:24.121Z,20.85
2019-04-10T03:31:57.573Z,16.70
2019-04-10T03:34:34.280Z,22.93
2019-04-10T03:37:04.890Z,17.10
2019-04-10T03:39:36.632Z,20.37
2019-04-10T03:42:08.570Z,19.05
2019-04-10T03:44:40.879Z,18.17
2019-04-10T03:47:13.325Z,16.87
2019-04-10T03:49:46.778Z,22.42
2019-04-10T03:52:19.003Z,22.62
2019-04-10T03:54:50.922Z,16.42
2019-04-10T03:57:22.677Z,28.38
2019-04-10T03:59:55.943Z,28.50
2019-04-10T04:02:27.991Z,22.02
2019-04-10T04:04:59.726Z,26.40
2019-04-10T04:07:33.105Z,24.57
2019-04-10T04:10:06.358Z,14.03
2019-04-10T04:12:39.155Z,26.02
2019-04-10T04:15:13.555Z,12.03
2019-04-10T04:17:46.496Z,17.57
2019-04-10T04:20:19.098Z,17.77
2019-04-10T04:22:50.958Z,13.50
2019-04-10T04:25:22.685Z,19.25
2019-04-10T04:27:55.738Z,19.85
2019-04-10T04:30:30.350Z,24.23
2019-04-10T04:33:02.525Z,18.35
2019-04-10T04:35:34.679Z,24.45
2019-04-10T04:38:07.148Z,19.52
2019-04-10T04:40:39.153Z,14.75
2019-04-10T04:43:10.875Z,18.10
2019-04-10T04:45:42.595Z,20.50
2019-04-10T04:48:14.578Z,16.85
2019-04-10T04:50:47.061Z,14.53
2019-04-10T04:53:18.783Z,19.82
2019-04-10T04:55:51.421Z,14.73
2019-04-10T04:58:24.266Z,22.98
2019-04-10T05:00:58.483Z,22.27
2019-04-10T05:03:31.392Z,21.77
2019-04-10T05:06:05.604Z,21.62
2019-04-10T05:08:37.910Z,18.23
2019-04-10T05:11:09.885Z,21.70
2019-04-10T05:13:42.417Z,19.82
2019-04-10T05:16:14.900Z,16.02
2019-04-10T05:18:47.613Z,22.30
2019-04-10T05:21:19.528Z,19.77
2019-04-10T05:23:51.345Z,20.62
2019-04-10T05:26:24.261Z,21.97
2019-04-10T05:28:57.026Z,18.52
2019-04-10T05:31:30.178Z,20.57
2019-04-10T05:34:02.977Z,17.70
2019-04-10T05:36:34.943Z,19.30
2019-04-10T05:39:08.616Z,21.42
2019-04-10T05:41:40.373Z,19.00
2019-04-10T05:44:12.153Z,19.15
2019-04-10T05:46:45.227Z,25.23
2019-04-10T05:49:17.314Z,31.35
2019-04-10T05:51:50.091Z,24.60
2019-04-10T05:54:24.601Z,19.00
2019-04-10T05:56:58.994Z,18.37
2019-04-10T05:59:32.468Z,26.25
2019-04-10T06:02:05.317Z,16.48
2019-04-10T06:04:37.827Z,23.73
2019-04-10T06:07:10.647Z,21.85
2019-04-10T06:09:54.017Z,22.25
2019-04-10T06:12:16.091Z,21.12
2019-04-10T06:14:48.531Z,18.60
2019-04-10T06:17:20.748Z,15.25
2019-04-10T06:19:53.114Z,21.42
2019-04-10T06:22:28.408Z,15.10
2019-04-10T06:25:00.767Z,19.90
2019-04-10T06:27:34.440Z,26.60
2019-04-10T06:30:07.889Z,17.90
2019-04-10T06:32:40.208Z,23.75
2019-04-10T06:35:13.495Z,14.73
2019-04-10T06:37:46.414Z,21.10
2019-04-10T06:40:21.083Z,21.65
2019-04-10T06:42:53.924Z,20.15
2019-04-10T06:45:26.267Z,15.78
2019-04-10T06:47:58.425Z,27.27
2019-04-10T06:50:31.482Z,18.50
2019-04-10T06:53:04.171Z,21.82
2019-04-10T06:55:36.480Z,20.32
2019-04-10T06:58:09.788Z,16.17
2019-04-10T07:00:46.679Z,39.38
2019-04-10T07:03:16.943Z,25.92
2019-04-10T07:06:02.467Z,18.00
2019-04-10T07:08:27.262Z,19.82
2019-04-10T07:11:05.110Z,13.20
2019-04-10T07:13:36.847Z,12.55
2019-04-10T07:16:09.544Z,23.70
2019-04-10T07:18:41.220Z,15.13
2019-04-10T07:21:14.583Z,24.35
2019-04-10T07:23:46.937Z,20.20
2019-04-10T07:26:29.122Z,16.25
2019-04-10T07:28:53.358Z,23.65
2019-04-10T07:31:27.435Z,19.25
2019-04-10T07:33:59.962Z,18.90
2019-04-10T07:36:32.898Z,18.15
2019-04-10T07:39:05.501Z,20.37
2019-04-10T07:41:41.720Z,17.15
2019-04-10T07:44:13.542Z,17.12
2019-04-10T07:46:46.535Z,21.30
2019-04-10T07:49:19.820Z,18.10
2019-04-10T07:51:53.902Z,22.15
2019-04-10T07:54:26.723Z,20.12
2019-04-10T07:56:58.492Z,17.92
2019-04-10T07:59:31.464Z,13.03
2019-04-10T08:02:05.947Z,16.27
2019-04-10T08:04:37.408Z,29.77
2019-04-10T08:07:09.526Z,30.05
2019-04-10T08:09:42.943Z,25.48
2019-04-10T08:12:16.073Z,22.62
2019-04-10T08:14:48.902Z,16.20
2019-04-10T08:17:21.795Z,18.98
2019-04-10T08:19:53.668Z,22.05
2019-04-10T08:22:26.433Z,21.02
2019-04-10T08:24:58.264Z,19.60
2019-04-10T08:27:30.022Z,21.50
2019-04-10T08:30:01.768Z,17.75
2019-04-10T08:32:47.306Z,23.35
2019-04-10T08:35:08.970Z,17.92
2019-04-10T08:37:41.159Z,20.92
2019-04-10T08:40:13.514Z,20.75
2019-04-10T08:42:46.623Z,17.77
2019-04-10T08:45:19.011Z,16.82
2019-04-10T08:47:52.644Z,26.57
2019-04-10T08:50:24.670Z,23.02
2019-04-10T08:52:56.405Z,20.00
2019-04-10T08:55:28.315Z,25.45
2019-04-10T08:58:00.756Z,19.15
2019-04-10T09:00:32.853Z,22.22
2019-04-10T09:03:04.813Z,25.55
2019-04-10T09:05:38.569Z,23.80
2019-04-10T09:08:10.804Z,17.42
2019-04-10T09:10:42.943Z,19.45
2019-04-10T09:13:14.744Z,16.40
2019-04-10T09:15:47.943Z,19.85
2019-04-10T09:18:20.972Z,18.45
2019-04-10T09:20:53.143Z,15.40
2019-04-10T09:23:36.232Z,16.80
2019-04-10T09:25:59.571Z,15.38
2019-04-10T09:28:33.307Z,12.20
2019-04-10T09:31:05.172Z,13.88
2019-04-10T09:33:37.029Z,11.85
2019-04-10T09:36:09.087Z,10.35
2019-04-10T09:38:41.290Z,11.20
2019-04-10T09:41:13.998Z,16.70
2019-04-10T09:43:51.153Z,14.95
2019-04-10T09:46:22.869Z,11.22
2019-04-10T09:48:54.676Z,16.35
2019-04-10T09:51:26.682Z,14.63
2019-04-10T09:53:59.437Z,15.03
2019-04-10T09:56:32.078Z,19.40
2019-04-10T09:59:04.045Z,22.77
2019-04-10T10:01:37.958Z,8.83
2019-04-10T10:04:10.044Z,14.73
2019-04-10T10:06:41.770Z,9.25
2019-04-10T10:09:15.357Z,13.35
2019-04-10T10:11:49.753Z,13.60
2019-04-10T10:14:21.678Z,9.68
2019-04-10T10:16:53.397Z,9.08
2019-04-10T10:19:25.960Z,11.25
2019-04-10T10:22:01.625Z,10.23
2019-04-10T10:24:33.113Z,10.98
2019-04-10T10:27:05.345Z,13.90
2019-04-10T10:29:37.684Z,9.60
2019-04-10T10:32:09.446Z,8.28
2019-04-10T10:34:41.180Z,8.25
2019-04-10T10:37:13.010Z,8.20
2019-04-10T10:39:47.242Z,11.08
2019-04-10T10:42:19.334Z,13.22
2019-04-10T10:44:58.487Z,8.43
2019-04-10T10:47:30.702Z,6.90
2019-04-10T10:50:04.613Z,9.43
2019-04-10T10:52:37.631Z,8.30
2019-04-10T10:55:11.663Z,13.13
2019-04-10T10:57:45.446Z,12.65
2019-04-10T11:00:18.921Z,10.53
2019-04-10T11:02:51.834Z,10.88
2019-04-10T11:05:23.715Z,6.95
2019-04-10T11:07:55.889Z,8.65
2019-04-10T11:10:27.716Z,13.65
2019-04-10T11:13:00.074Z,10.23
2019-04-10T11:15:32.048Z,8.98
2019-04-10T11:18:04.288Z,8.33
2019-04-10T11:20:36.476Z,11.83
2019-04-10T11:23:09.406Z,7.03
2019-04-10T11:25:43.865Z,13.53
2019-04-10T11:28:16.273Z,4.12
2019-04-10T11:30:49.167Z,7.50
2019-04-10T11:33:22.294Z,6.42
2019-04-10T11:35:55.234Z,7.45
2019-04-10T11:38:27.336Z,7.58
2019-04-10T11:41:00.108Z,8.63
2019-04-10T11:43:33.642Z,4.97
2019-04-10T11:46:07.810Z,5.85
2019-04-10T11:48:41.854Z,7.12
2019-04-10T11:51:14.144Z,5.97
2019-04-10T11:53:48.700Z,7.10
2019-04-10T11:56:21.094Z,6.75
2019-04-10T11:58:56.318Z,7.70
2019-04-10T12:01:30.943Z,8.70
2019-04-10T12:04:05.124Z,8.48
2019-04-10T12:06:38.218Z,7.72
2019-04-10T12:09:56.936Z,6.15
2019-04-10T12:11:50.299Z,9.80
2019-04-10T12:14:23.638Z,9.43
2019-04-10T12:16:55.823Z,8.13
2019-04-10T12:19:28.946Z,8.23
2019-04-10T12:22:01.210Z,9.95
2019-04-10T12:24:32.912Z,7.67
2019-04-10T12:27:04.685Z,9.30
2019-04-10T12:29:38.467Z,9.10
2019-04-10T12:32:10.673Z,9.08
2019-04-10T12:34:43.244Z,6.72
2019-04-10T12:37:15.401Z,7.83
2019-04-10T12:39:47.872Z,6.22
2019-04-10T12:42:21.845Z,10.15
2019-04-10T12:44:53.665Z,8.28
2019-04-10T12:47:25.944Z,7.70
2019-04-10T12:49:58.338Z,12.20
2019-04-10T12:52:30.449Z,11.90
2019-04-10T12:55:02.174Z,10.70
2019-04-10T12:57:34.736Z,11.40
2019-04-10T13:00:09.628Z,9.65
2019-04-10T13:02:42.715Z,14.40
2019-04-10T13:05:14.565Z,12.28
2019-04-10T13:07:47.775Z,11.35
2019-04-10T13:10:20.381Z,10.45
2019-04-10T13:12:53.277Z,8.90
2019-04-10T13:15:25.687Z,10.95
2019-04-10T13:17:58.398Z,10.32
2019-04-10T13:20:31.568Z,9.63
2019-04-10T13:23:04.438Z,9.80
2019-04-10T13:25:36.716Z,9.55
2019-04-10T13:28:09.867Z,8.88
2019-04-10T13:30:49.717Z,10.20
2019-04-10T13:33:16.228Z,11.83
2019-04-10T13:35:49.126Z,8.45
2019-04-10T13:38:26.592Z,6.25
2019-04-10T13:40:54.752Z,9.20
2019-04-10T13:43:27.614Z,12.10
2019-04-10T13:46:00.444Z,8.15
2019-04-10T13:48:33.230Z,5.92
2019-04-10T13:51:05.417Z,7.87
2019-04-10T13:53:37.757Z,9.20
2019-04-10T13:56:11.413Z,10.95
2019-04-10T13:58:43.130Z,8.65
2019-04-10T14:01:20.292Z,9.33
2019-04-10T14:03:52.435Z,10.28
2019-04-10T14:06:25.420Z,8.33
2019-04-10T14:09:11.894Z,6.50
2019-04-10T14:11:30.782Z,9.70
2019-04-10T14:14:04.403Z,5.45
2019-04-10T14:16:37.825Z,8.10
2019-04-10T14:19:09.842Z,5.72
2019-04-10T14:21:41.570Z,5.45
2019-04-10T14:24:13.369Z,4.92
2019-04-10T14:27:01.618Z,9.58
2019-04-10T14:29:34.328Z,9.68
2019-04-10T14:32:09.150Z,7.20
2019-04-10T14:34:40.955Z,6.47
2019-04-10T14:37:13.833Z,7.62
2019-04-10T14:39:45.563Z,9.75
2019-04-10T14:42:18.478Z,9.38
2019-04-10T14:44:50.284Z,12.23
2019-04-10T14:47:25.695Z,8.63
2019-04-10T14:49:58.026Z,10.65
2019-04-10T14:52:30.165Z,10.70
2019-04-10T14:55:02.162Z,5.37
2019-04-10T14:57:34.965Z,6.65
2019-04-10T15:00:08.862Z,9.18
2019-04-10T15:02:41.268Z,12.47
2019-04-10T15:05:13.379Z,6.62
2019-04-10T15:07:45.148Z,10.75
2019-04-10T15:10:17.059Z,8.60
2019-04-10T15:12:49.731Z,7.17
2019-04-10T15:15:21.578Z,7.95
2019-04-10T15:17:54.158Z,13.75
2019-04-10T15:20:26.009Z,6.58
2019-04-10T15:22:58.637Z,7.35
2019-04-10T15:25:31.157Z,9.43
2019-04-10T15:28:02.936Z,11.15
2019-04-10T15:30:35.593Z,9.43
2019-04-10T15:33:07.314Z,10.53
2019-04-10T15:35:39.211Z,10.50
2019-04-10T15:38:18.716Z,6.22
2019-04-10T15:40:52.572Z,10.80
2019-04-10T15:43:25.402Z,9.75
2019-04-10T15:45:57.796Z,9.80
2019-04-10T15:48:29.551Z,12.20
2019-04-10T15:51:01.339Z,7.15
2019-04-10T15:53:34.534Z,10.40
2019-04-10T15:56:06.506Z,8.20
2019-04-10T15:58:38.226Z,9.85
2019-04-10T16:01:13.966Z,13.40
2019-04-10T16:03:45.663Z,8.65
2019-04-10T16:06:17.535Z,9.93
2019-04-10T16:08:50.271Z,7.83
2019-04-10T16:11:57.068Z,9.45
2019-04-10T16:14:31.497Z,10.88
2019-04-10T16:17:22.903Z,9.40
2019-04-10T16:20:02.090Z,9.23
2019-04-10T16:22:40.548Z,9.13
2019-04-10T16:25:17.866Z,7.47
2019-04-10T16:27:50.076Z,9.13
2019-04-10T16:30:24.230Z,10.50
2019-04-10T16:32:55.988Z,10.72
2019-04-10T16:35:32.485Z,8.05
2019-04-10T16:38:05.124Z,7.45
2019-04-10T16:40:40.050Z,11.85
2019-04-10T16:43:13.843Z,9.43
2019-04-10T16:45:46.922Z,9.48
2019-04-10T16:48:18.939Z,8.28
2019-04-10T16:50:51.853Z,5.28
2019-04-10T16:53:23.787Z,7.70
2019-04-10T16:55:56.780Z,6.20
2019-04-10T16:58:29.740Z,11.22
2019-04-10T17:01:02.249Z,8.50
2019-04-10T17:03:34.255Z,8.15
2019-04-10T17:06:06.106Z,9.80
2019-04-10T17:08:40.538Z,10.15
2019-04-10T17:11:13.310Z,9.08
2019-04-10T17:13:45.075Z,8.78
2019-04-10T17:16:17.726Z,10.68
2019-04-10T17:18:49.665Z,13.62
2019-04-10T17:21:23.090Z,11.33
2019-04-10T17:23:54.859Z,9.18
2019-04-10T17:26:26.957Z,7.85
2019-04-10T17:28:58.899Z,9.03
2019-04-10T17:31:32.818Z,9.93
2019-04-10T17:34:04.673Z,7.95
2019-04-10T17:36:36.885Z,12.60
2019-04-10T17:39:16.184Z,10.55
2019-04-10T17:41:48.193Z,7.30
2019-04-10T17:44:21.658Z,9.28
2019-04-10T17:46:53.438Z,9.60
2019-04-10T17:49:25.858Z,8.48
2019-04-10T17:51:58.715Z,13.40
2019-04-10T17:54:31.408Z,7.15
2019-04-10T17:57:04.510Z,5.87
2019-04-10T17:59:36.584Z,9.15
2019-04-10T18:02:11.764Z,8.83
2019-04-10T18:04:44.242Z,10.72
2019-04-10T18:07:16.307Z,9.43
2019-04-10T18:09:48.567Z,10.60
2019-04-10T18:12:21.619Z,6.10
2019-04-10T18:14:53.576Z,7.25
2019-04-10T18:17:25.410Z,11.75
2019-04-10T18:19:57.175Z,14.55
2019-04-10T18:22:30.689Z,9.63
2019-04-10T18:25:03.484Z,9.45
2019-04-10T18:27:36.493Z,10.28
2019-04-10T18:30:09.939Z,8.43
2019-04-10T18:32:42.209Z,16.37
2019-04-10T18:35:14.330Z,14.50
2019-04-10T18:37:47.689Z,9.65
2019-04-10T18:40:21.698Z,7.37
2019-04-10T18:42:56.138Z,9.88
2019-04-10T18:45:28.025Z,12.10
2019-04-10T18:48:00.620Z,15.80
2019-04-10T18:50:32.719Z,12.18
2019-04-10T18:53:04.621Z,9.88
2019-04-10T18:55:36.861Z,8.83
2019-04-10T18:58:13.730Z,11.28
2019-04-10T19:01:14.225Z,12.40
2019-04-10T19:04:16.816Z,12.93
2019-04-10T19:06:57.293Z,10.10
2019-04-10T19:09:36.862Z,12.70
2019-04-10T19:12:08.893Z,5.92
2019-04-10T19:14:40.804Z,11.75
2019-04-10T19:17:13.007Z,13.90
2019-04-10T19:19:45.423Z,14.25
2019-04-10T19:22:20.300Z,12.43
2019-04-10T19:24:52.542Z,15.32
2019-04-10T19:27:25.549Z,16.05
2019-04-10T19:30:00.886Z,11.45
2019-04-10T19:32:37.435Z,12.60
2019-04-10T19:35:09.442Z,11.70
2019-04-10T19:37:42.666Z,13.60
2019-04-10T19:40:15.926Z,10.70
2019-04-10T19:42:47.766Z,11.65
2019-04-10T19:45:19.582Z,14.53
2019-04-10T19:47:52.719Z,10.53
2019-04-10T19:50:25.527Z,19.70
2019-04-10T19:52:57.715Z,16.23
2019-04-10T19:55:30.257Z,14.78
2019-04-10T19:58:03.830Z,17.60
2019-04-10T20:00:36.876Z,18.15
2019-04-10T20:03:11.194Z,13.80
2019-04-10T20:05:44.243Z,14.33
2019-04-10T20:08:17.516Z,16.90
2019-04-10T20:10:50.469Z,11.10
2019-04-10T20:13:22.730Z,10.65
2019-04-10T20:15:55.181Z,29.37
2019-04-10T20:18:29.632Z,27.52
2019-04-10T20:21:03.850Z,29.25
2019-04-10T20:23:36.155Z,53.02
2019-04-10T20:26:08.283Z,25.20
2019-04-10T20:28:42.805Z,16.40
2019-04-10T20:31:25.557Z,13.95
2019-04-10T20:33:57.568Z,20.45
2019-04-10T20:36:31.803Z,30.70
2019-04-10T20:39:05.949Z,22.85
2019-04-10T20:41:46.534Z,24.40
2019-04-10T20:44:12.463Z,19.17
2019-04-10T20:46:44.518Z,15.15
2019-04-10T20:49:16.689Z,17.07
2019-04-10T20:51:48.927Z,18.15
2019-04-10T20:54:22.510Z,18.17
2019-04-10T20:56:54.891Z,11.10
2019-04-10T20:59:26.924Z,17.65
2019-04-10T21:01:59.934Z,12.03
2019-04-10T21:04:33.848Z,20.40
2019-04-10T21:07:06.902Z,14.25
2019-04-10T21:09:39.584Z,21.00
2019-04-10T21:12:17.466Z,18.25
2019-04-10T21:14:47.789Z,11.43
2019-04-10T21:17:20.512Z,9.50
2019-04-10T21:19:53.692Z,17.15
2019-04-10T21:22:26.506Z,20.25
2019-04-10T21:25:00.593Z,12.33
2019-04-10T21:27:32.988Z,15.60
2019-04-10T21:30:24.226Z,16.07
2019-04-10T21:33:18.389Z,15.10
2019-04-10T21:35:51.958Z,15.08
2019-04-10T21:38:26.196Z,15.72
2019-04-10T21:40:59.393Z,11.03
2019-04-10T21:43:32.624Z,22.20
2019-04-10T21:46:06.085Z,14.58
2019-04-10T21:48:39.104Z,15.10
2019-04-10T21:51:12.204Z,26.52
2019-04-10T21:53:45.162Z,25.97
2019-04-10T21:56:18.075Z,30.02
2019-04-10T21:58:50.076Z,21.60
2019-04-10T22:01:24.244Z,15.28
2019-04-10T22:03:58.482Z,13.32
2019-04-10T22:06:40.168Z,15.55
2019-04-10T22:09:30.541Z,19.10
2019-04-10T22:12:22.197Z,18.10
2019-04-10T22:14:43.872Z,20.48
2019-04-10T22:17:17.493Z,12.55
2019-04-10T22:19:49.322Z,11.22
2019-04-10T22:22:22.255Z,14.23
2019-04-10T22:24:54.764Z,16.85
2019-04-10T22:27:29.553Z,16.87
2019-04-10T22:30:02.896Z,17.12
2019-04-10T22:32:36.179Z,14.10
2019-04-10T22:35:08.966Z,17.15
2019-04-10T22:37:41.290Z,17.77
2019-04-10T22:40:13.132Z,16.27
2019-04-10T22:42:47.873Z,21.05
2019-04-10T22:45:30.910Z,14.03
2019-04-10T22:48:04.048Z,22.73
2019-04-10T22:50:36.474Z,19.40
2019-04-10T22:53:08.918Z,14.78
2019-04-10T22:55:42.060Z,17.92
2019-04-10T22:58:15.325Z,14.50
2019-04-10T23:00:48.844Z,16.50
2019-04-10T23:03:22.318Z,24.92
2019-04-10T23:05:56.492Z,27.67
2019-04-10T23:08:28.898Z,17.52
2019-04-10T23:11:01.481Z,16.17
2019-04-10T23:13:36.305Z,17.95
2019-04-10T23:16:09.266Z,17.52
2019-04-10T23:18:41.409Z,23.40
2019-04-10T23:21:14.472Z,17.90
2019-04-10T23:23:47.523Z,17.00
2019-04-10T23:26:24.942Z,18.02
2019-04-10T23:28:57.897Z,21.15
2019-04-10T23:31:29.888Z,16.85
2019-04-10T23:34:01.720Z,20.72
2019-04-10T23:36:34.027Z,17.30
2019-04-10T23:39:08.103Z,19.65
2019-04-10T23:41:40.158Z,18.65
2019-04-10T23:44:13.565Z,21.77
2019-04-10T23:46:47.466Z,19.90
2019-04-10T23:49:19.525Z,14.55
2019-04-10T23:51:53.603Z,17.05
2019-04-10T23:54:27.032Z,17.75
2019-04-10T23:56:59.104Z,18.50
2019-04-10T23:59:30.930Z,14.20
